Time,TemperatureF,DewpointF,PressureIn,WindDirection,WindDirectionDegrees,WindSpeedMPH,WindSpeedGustMPH,Humidity,HourlyPrecipIn,Conditions,Clouds,dailyrainin,SolarRadiationWatts/m^2,SoftwareType,DateUTC
2013-04-13 00:03:00,40.0,38.0,-100.00,NNE,26,1.0,7.0,91,0.00,,,0.24,0.000000,,2013-04-13 04:03:00,
2013-04-13 00:33:00,39.0,37.0,-100.00,NNE,28,3.0,10.0,93,0.03,,,0.27,0.000000,,2013-04-13 04:33:00,
2013-04-13 00:42:00,39.0,37.0,-100.00,NNE,28,3.0,10.0,93,0.03,,,0.27,0.000000,,2013-04-13 04:42:00,
2013-04-13 00:53:00,39.0,37.0,-100.00,NNE,28,3.0,10.0,93,0.03,,,0.27,0.000000,,2013-04-13 04:53:00,
2013-04-13 01:03:00,39.0,37.0,-100.00,NNE,28,3.0,10.0,93,0.03,,,0.27,0.000000,,2013-04-13 05:03:00,
2013-04-13 01:32:00,39.0,37.0,-100.00,NE,36,2.0,7.0,93,0.01,,,0.28,0.000000,,2013-04-13 05:32:00,
2013-04-13 01:43:00,39.0,37.0,-100.00,NE,36,2.0,7.0,93,0.01,,,0.28,0.000000,,2013-04-13 05:43:00,
2013-04-13 01:53:00,39.0,37.0,-100.00,NE,36,2.0,7.0,93,0.01,,,0.28,0.000000,,2013-04-13 05:53:00,
2013-04-13 02:02:00,39.0,37.0,-100.00,NE,36,2.0,7.0,93,0.01,,,0.28,0.000000,,2013-04-13 06:02:00,
2013-04-13 02:07:00,38.0,36.0,-100.00,NE,47,1.0,6.0,93,0.01,,,0.29,0.000000,,2013-04-13 06:07:00,
2013-04-13 02:36:00,38.0,36.0,-100.00,NE,47,1.0,6.0,93,0.01,,,0.29,0.000000,,2013-04-13 06:36:00,
2013-04-13 02:49:00,38.0,36.0,-100.00,NE,47,1.0,6.0,93,0.01,,,0.29,0.000000,,2013-04-13 06:49:00,
2013-04-13 02:56:00,38.0,36.0,-100.00,NE,47,1.0,6.0,93,0.01,,,0.29,0.000000,,2013-04-13 06:56:00,
2013-04-13 03:07:00,39.0,37.0,-100.00,NNW,331,2.0,6.0,93,0.00,,,0.29,0.000000,,2013-04-13 07:07:00,
2013-04-13 03:36:00,39.0,37.0,-100.00,NNW,331,2.0,6.0,93,0.00,,,0.29,0.000000,,2013-04-13 07:36:00,
2013-04-13 03:57:00,39.0,37.0,-100.00,NNW,331,2.0,6.0,93,0.00,,,0.29,0.000000,,2013-04-13 07:57:00,
2013-04-13 04:35:00,38.0,36.0,-100.00,NNE,31,1.0,8.0,91,0.00,,,0.29,0.000000,,2013-04-13 08:35:00,
2013-04-13 04:47:00,38.0,36.0,-100.00,NNE,31,1.0,8.0,91,0.00,,,0.29,0.000000,,2013-04-13 08:47:00,
2013-04-13 04:55:00,38.0,36.0,-100.00,NNE,31,1.0,8.0,91,0.00,,,0.29,0.000000,,2013-04-13 08:55:00,
2013-04-13 05:05:00,38.0,36.0,-100.00,NNE,31,1.0,8.0,91,0.00,,,0.29,0.000000,,2013-04-13 09:05:00,
2013-04-13 05:38:00,37.0,35.0,-100.00,NNE,25,0.0,6.0,91,0.00,,,0.29,0.000000,,2013-04-13 09:38:00,
2013-04-13 05:53:00,37.0,35.0,-100.00,NNE,25,0.0,6.0,91,0.00,,,0.29,0.000000,,2013-04-13 09:53:00,
2013-04-13 06:05:00,37.0,35.0,-100.00,NNE,25,0.0,6.0,91,0.00,,,0.29,0.000000,,2013-04-13 10:05:00,
2013-04-13 06:07:00,38.0,36.0,-100.00,NW,315,0.0,3.0,93,0.00,,,0.29,0.000000,,2013-04-13 10:07:00,
2013-04-13 06:38:00,38.0,36.0,-100.00,NW,315,0.0,3.0,93,0.00,,,0.29,0.000000,,2013-04-13 10:38:00,
2013-04-13 06:51:00,38.0,36.0,-100.00,NW,315,0.0,3.0,93,0.00,,,0.29,0.000000,,2013-04-13 10:51:00,
2013-04-13 07:07:00,37.0,35.0,-100.00,WNW,288,0.0,2.0,93,0.00,,,0.29,23.000000,,2013-04-13 11:07:00,
2013-04-13 07:35:00,37.0,35.0,-100.00,WNW,288,0.0,2.0,93,0.00,,,0.29,23.000000,,2013-04-13 11:35:00,
2013-04-13 07:46:00,37.0,35.0,-100.00,WNW,288,0.0,2.0,93,0.00,,,0.29,23.000000,,2013-04-13 11:46:00,
2013-04-13 07:54:00,37.0,35.0,-100.00,WNW,288,0.0,2.0,93,0.00,,,0.29,23.000000,,2013-04-13 11:54:00,
2013-04-13 08:07:00,41.0,37.0,-100.00,SW,219,0.0,3.0,85,0.00,,,0.28,184.000000,,2013-04-13 12:07:00,
2013-04-13 08:37:00,41.0,37.0,-100.00,SW,219,0.0,3.0,85,0.00,,,0.28,184.000000,,2013-04-13 12:37:00,
2013-04-13 08:49:00,41.0,37.0,-100.00,SW,219,0.0,3.0,85,0.00,,,0.28,184.000000,,2013-04-13 12:49:00,
2013-04-13 09:37:00,42.0,38.0,-100.00,West,259,2.0,5.0,84,0.00,,,0.27,179.000000,,2013-04-13 13:37:00,
2013-04-13 09:49:00,42.0,38.0,-100.00,West,259,2.0,5.0,84,0.00,,,0.27,179.000000,,2013-04-13 13:49:00,
2013-04-13 09:57:00,42.0,38.0,-100.00,West,259,2.0,5.0,84,0.00,,,0.27,179.000000,,2013-04-13 13:57:00,
2013-04-13 10:05:00,42.0,38.0,-100.00,West,259,2.0,5.0,84,0.00,,,0.27,179.000000,,2013-04-13 14:05:00,
2013-04-13 10:39:00,43.0,38.0,-100.00,SSW,210,2.0,7.0,82,0.00,,,0.21,220.000000,,2013-04-13 14:39:00,
2013-04-13 10:48:00,43.0,38.0,-100.00,SSW,210,2.0,7.0,82,0.00,,,0.21,220.000000,,2013-04-13 14:48:00,
2013-04-13 11:05:00,43.0,38.0,-100.00,SSW,210,2.0,7.0,82,0.00,,,0.21,220.000000,,2013-04-13 15:05:00,
2013-04-13 11:07:00,49.0,39.0,-100.00,SW,233,2.0,5.0,68,0.00,,,0.10,417.000000,,2013-04-13 15:07:00,
2013-04-13 11:38:00,49.0,39.0,-100.00,SW,233,2.0,5.0,68,0.00,,,0.10,417.000000,,2013-04-13 15:38:00,
2013-04-13 11:45:00,49.0,39.0,-100.00,SW,233,2.0,5.0,68,0.00,,,0.10,417.000000,,2013-04-13 15:45:00,
2013-04-13 11:58:00,49.0,39.0,-100.00,SW,233,2.0,5.0,68,0.00,,,0.10,417.000000,,2013-04-13 15:58:00,
2013-04-13 12:07:00,51.0,34.0,-100.00,SSW,206,2.0,8.0,52,0.00,,,0.07,484.000000,,2013-04-13 16:07:00,
2013-04-13 12:37:00,51.0,34.0,-100.00,SSW,206,2.0,8.0,52,0.00,,,0.07,484.000000,,2013-04-13 16:37:00,
2013-04-13 12:48:00,51.0,34.0,-100.00,SSW,206,2.0,8.0,52,0.00,,,0.07,484.000000,,2013-04-13 16:48:00,
2013-04-13 12:58:00,51.0,34.0,-100.00,SSW,206,2.0,8.0,52,0.00,,,0.07,484.000000,,2013-04-13 16:58:00,
2013-04-13 13:07:00,53.0,35.0,-100.00,SSW,201,3.0,8.0,51,0.00,,,0.05,352.000000,,2013-04-13 17:07:00,
2013-04-13 13:38:00,53.0,35.0,-100.00,SSW,201,3.0,8.0,51,0.00,,,0.05,352.000000,,2013-04-13 17:38:00,
2013-04-13 13:45:00,53.0,35.0,-100.00,SSW,201,3.0,8.0,51,0.00,,,0.05,352.000000,,2013-04-13 17:45:00,
2013-04-13 14:04:00,53.0,35.0,-100.00,SSW,201,3.0,8.0,51,0.00,,,0.05,352.000000,,2013-04-13 18:04:00,
2013-04-13 14:33:00,54.0,34.0,-100.00,West,270,3.0,10.0,47,0.00,,,0.05,460.000000,,2013-04-13 18:33:00,
2013-04-13 14:42:00,54.0,34.0,-100.00,West,270,3.0,10.0,47,0.00,,,0.05,460.000000,,2013-04-13 18:42:00,
2013-04-13 14:53:00,54.0,34.0,-100.00,West,270,3.0,10.0,47,0.00,,,0.05,460.000000,,2013-04-13 18:53:00,
2013-04-13 15:03:00,54.0,34.0,-100.00,West,270,3.0,10.0,47,0.00,,,0.05,460.000000,,2013-04-13 19:03:00,
2013-04-13 15:33:00,55.0,33.0,-100.00,WSW,252,4.0,11.0,44,0.00,,,0.05,463.000000,,2013-04-13 19:33:00,
2013-04-13 15:42:00,55.0,33.0,-100.00,WSW,252,4.0,11.0,44,0.00,,,0.05,463.000000,,2013-04-13 19:42:00,
2013-04-13 15:53:00,55.0,33.0,-100.00,WSW,252,4.0,11.0,44,0.00,,,0.05,463.000000,,2013-04-13 19:53:00,
2013-04-13 16:02:00,55.0,33.0,-100.00,WSW,252,4.0,11.0,44,0.00,,,0.05,463.000000,,2013-04-13 20:02:00,
2013-04-13 16:32:00,56.0,34.0,-100.00,SW,223,7.0,13.0,44,0.00,,,0.05,318.000000,,2013-04-13 20:32:00,
2013-04-13 16:42:00,56.0,34.0,-100.00,SW,223,7.0,13.0,44,0.00,,,0.05,318.000000,,2013-04-13 20:42:00,
2013-04-13 16:53:00,56.0,34.0,-100.00,SW,223,7.0,13.0,44,0.00,,,0.05,318.000000,,2013-04-13 20:53:00,
2013-04-13 17:02:00,56.0,34.0,-100.00,SW,223,7.0,13.0,44,0.00,,,0.05,318.000000,,2013-04-13 21:02:00,
2013-04-13 17:33:00,56.0,34.0,-100.00,SW,231,4.0,12.0,43,0.00,,,0.05,156.000000,,2013-04-13 21:33:00,
2013-04-13 17:43:00,56.0,34.0,-100.00,SW,231,4.0,12.0,43,0.00,,,0.05,156.000000,,2013-04-13 21:43:00,
2013-04-13 17:53:00,56.0,34.0,-100.00,SW,231,4.0,12.0,43,0.00,,,0.05,156.000000,,2013-04-13 21:53:00,
2013-04-13 18:03:00,56.0,34.0,-100.00,SW,231,4.0,12.0,43,0.00,,,0.05,156.000000,,2013-04-13 22:03:00,
2013-04-13 18:33:00,57.0,32.0,-100.00,West,268,5.0,11.0,38,0.00,,,0.05,145.000000,,2013-04-13 22:33:00,
2013-04-13 18:42:00,57.0,32.0,-100.00,West,268,5.0,11.0,38,0.00,,,0.05,145.000000,,2013-04-13 22:42:00,
2013-04-13 18:53:00,57.0,32.0,-100.00,West,268,5.0,11.0,38,0.00,,,0.05,145.000000,,2013-04-13 22:53:00,
2013-04-13 19:02:00,57.0,32.0,-100.00,West,268,5.0,11.0,38,0.00,,,0.05,145.000000,,2013-04-13 23:02:00,
2013-04-13 19:33:00,55.0,32.0,-100.00,West,265,8.0,16.0,42,0.00,,,0.05,79.000000,,2013-04-13 23:33:00,
2013-04-13 19:43:00,55.0,32.0,-100.00,West,265,8.0,16.0,42,0.00,,,0.05,79.000000,,2013-04-13 23:43:00,
2013-04-13 19:53:00,55.0,32.0,-100.00,West,265,8.0,16.0,42,0.00,,,0.05,79.000000,,2013-04-13 23:53:00,
2013-04-13 20:03:00,55.0,32.0,-100.00,West,265,8.0,16.0,42,0.00,,,0.05,79.000000,,2013-04-14 00:03:00,
2013-04-13 21:33:00,50.0,31.0,-100.00,West,260,4.0,9.0,48,-99.99,,,0.05,0.000000,,2013-04-14 01:33:00,
2013-04-13 21:43:00,50.0,31.0,-100.00,West,260,4.0,9.0,48,-99.99,,,0.05,0.000000,,2013-04-14 01:43:00,
2013-04-13 21:53:00,50.0,31.0,-100.00,West,260,4.0,9.0,48,-99.99,,,0.05,0.000000,,2013-04-14 01:53:00,
2013-04-13 22:02:00,50.0,31.0,-100.00,West,260,4.0,9.0,48,-99.99,,,0.05,0.000000,,2013-04-14 02:02:00,
2013-04-13 22:33:00,43.0,34.0,-100.00,East,92,1.0,7.0,71,0.00,,,0.05,0.000000,,2013-04-14 02:33:00,
2013-04-13 22:43:00,43.0,34.0,-100.00,East,92,1.0,7.0,71,0.00,,,0.05,0.000000,,2013-04-14 02:43:00,
2013-04-13 22:53:00,43.0,34.0,-100.00,East,92,1.0,7.0,71,0.00,,,0.05,0.000000,,2013-04-14 02:53:00,
2013-04-13 23:03:00,43.0,34.0,-100.00,East,92,1.0,7.0,71,0.00,,,0.05,0.000000,,2013-04-14 03:03:00,
2013-04-13 23:33:00,46.0,32.0,-100.00,SW,215,3.0,5.0,57,0.00,,,0.05,0.000000,,2013-04-14 03:33:00,
2013-04-13 23:43:00,46.0,32.0,-100.00,SW,215,3.0,5.0,57,0.00,,,0.05,0.000000,,2013-04-14 03:43:00,
2013-04-13 23:53:00,46.0,32.0,-100.00,SW,215,3.0,5.0,57,0.00,,,0.05,0.000000,,2013-04-14 03:53:00,